createdAt,value
2017-12-10T00:00:41.031Z,96.20
2017-12-10T00:03:14.629Z,96.20
2017-12-10T00:05:48.286Z,95.90
2017-12-10T00:08:22.710Z,96.10
2017-12-10T00:10:56.472Z,96.10
2017-12-10T00:13:30.008Z,96.50
2017-12-10T00:16:04.328Z,96.70
2017-12-10T00:18:37.899Z,96.70
2017-12-10T00:21:11.597Z,96.90
2017-12-10T00:23:45.106Z,97.60
2017-12-10T00:26:19.632Z,97.70
2017-12-10T00:28:53.167Z,97.70
2017-12-10T00:31:26.861Z,97.20
2017-12-10T00:34:00.441Z,97.30
2017-12-10T00:36:34.019Z,96.70
2017-12-10T00:39:07.751Z,97.00
2017-12-10T00:41:42.178Z,98.30
2017-12-10T00:44:16.342Z,98.10
2017-12-10T00:46:50.040Z,98.80
2017-12-10T00:49:23.615Z,99.20
2017-12-10T00:51:57.278Z,98.70
2017-12-10T00:54:30.776Z,97.80
2017-12-10T00:57:04.435Z,97.10
2017-12-10T00:59:38.897Z,97.90
2017-12-10T01:02:13.221Z,98.60
2017-12-10T01:04:46.935Z,98.30
2017-12-10T01:07:20.470Z,98.00
2017-12-10T01:09:54.268Z,97.50
2017-12-10T01:12:27.961Z,97.30
2017-12-10T01:15:01.626Z,97.40
2017-12-10T01:17:35.139Z,96.90
2017-12-10T01:20:09.456Z,97.00
2017-12-10T01:22:42.997Z,96.90
2017-12-10T01:25:16.559Z,97.00
2017-12-10T01:27:50.148Z,97.00
2017-12-10T01:30:23.681Z,97.40
2017-12-10T01:32:58.195Z,96.90
2017-12-10T01:35:33.189Z,97.10
2017-12-10T01:38:07.736Z,98.40
2017-12-10T01:40:42.129Z,98.80
2017-12-10T01:43:15.750Z,98.70
2017-12-10T01:45:50.042Z,98.20
2017-12-10T01:48:23.589Z,98.20
2017-12-10T01:50:57.151Z,98.00
2017-12-10T01:53:30.916Z,97.50
2017-12-10T01:56:04.477Z,97.40
2017-12-10T01:58:38.054Z,97.30
2017-12-10T02:01:11.711Z,97.30
2017-12-10T02:03:45.259Z,97.40
2017-12-10T02:06:18.872Z,98.00
2017-12-10T02:08:52.517Z,98.50
2017-12-10T02:11:26.077Z,98.40
2017-12-10T02:14:00.380Z,99.20
2017-12-10T02:16:34.034Z,99.20
2017-12-10T02:19:07.568Z,97.20
2017-12-10T02:21:41.896Z,97.50
2017-12-10T02:24:16.446Z,97.60
2017-12-10T02:26:50.180Z,97.60
2017-12-10T02:29:23.895Z,97.20
2017-12-10T02:31:57.427Z,96.90
2017-12-10T02:34:31.181Z,97.40
2017-12-10T02:37:04.759Z,97.20
2017-12-10T02:39:38.338Z,97.70
2017-12-10T02:42:11.939Z,97.90
2017-12-10T02:44:45.460Z,97.70
2017-12-10T02:47:19.169Z,97.90
2017-12-10T02:49:52.779Z,96.40
2017-12-10T02:52:26.613Z,96.80
2017-12-10T02:55:00.166Z,97.30
2017-12-10T02:57:34.683Z,96.40
2017-12-10T03:00:08.181Z,96.30
2017-12-10T03:02:41.743Z,97.50
2017-12-10T03:05:15.370Z,99.20
2017-12-10T03:07:49.885Z,98.80
2017-12-10T03:10:23.471Z,98.40
2017-12-10T03:12:57.003Z,98.60
2017-12-10T03:15:30.533Z,97.70
2017-12-10T03:18:04.189Z,97.70
2017-12-10T03:20:37.715Z,97.70
2017-12-10T03:23:11.988Z,98.30
2017-12-10T03:25:45.537Z,98.30
2017-12-10T03:28:19.248Z,98.30
2017-12-10T03:30:52.919Z,97.80
2017-12-10T03:33:27.414Z,98.30
2017-12-10T03:36:00.945Z,97.90
2017-12-10T03:38:34.670Z,97.40
2017-12-10T03:41:08.227Z,97.00
2017-12-10T03:43:41.945Z,97.00
2017-12-10T03:46:15.652Z,97.90
2017-12-10T03:48:49.375Z,98.30
2017-12-10T03:51:23.768Z,98.60
2017-12-10T03:53:57.376Z,98.60
2017-12-10T03:56:30.932Z,98.60
2017-12-10T03:59:04.484Z,98.10
2017-12-10T04:01:38.805Z,98.10
2017-12-10T04:04:12.360Z,98.10
2017-12-10T04:06:45.955Z,97.10
2017-12-10T04:09:19.600Z,97.00
2017-12-10T04:11:54.026Z,97.80
2017-12-10T04:14:27.632Z,97.80
2017-12-10T04:17:01.341Z,99.50
2017-12-10T04:19:35.713Z,99.90
2017-12-10T04:22:09.243Z,99.90
2017-12-10T04:24:43.540Z,99.90
2017-12-10T04:31:52.405Z,99.90
2017-12-10T04:34:26.175Z,99.90
2017-12-10T04:36:59.710Z,98.90
2017-12-10T04:39:34.106Z,97.80
2017-12-10T04:42:07.850Z,97.70
2017-12-10T04:44:41.446Z,98.10
2017-12-10T04:47:15.102Z,98.10
2017-12-10T04:49:48.747Z,97.60
2017-12-10T04:52:22.400Z,97.70
2017-12-10T04:54:56.169Z,98.10
2017-12-10T04:57:29.817Z,96.70
2017-12-10T05:00:03.517Z,96.50
2017-12-10T05:02:37.115Z,96.10
2017-12-10T05:05:10.630Z,95.10
2017-12-10T05:07:44.142Z,96.10
2017-12-10T05:10:18.455Z,95.00
2017-12-10T05:12:52.154Z,95.00
2017-12-10T05:15:26.485Z,95.90
2017-12-10T05:18:00.078Z,95.80
2017-12-10T05:20:33.666Z,95.40
2017-12-10T05:23:07.998Z,96.30
2017-12-10T05:25:41.527Z,96.30
2017-12-10T05:28:15.213Z,95.60
2017-12-10T05:30:48.748Z,95.30
2017-12-10T05:33:22.312Z,94.90
2017-12-10T05:35:56.019Z,96.20
2017-12-10T05:38:30.302Z,96.20
2017-12-10T05:41:03.853Z,96.20
2017-12-10T05:43:37.444Z,95.90
2017-12-10T05:46:11.100Z,94.40
2017-12-10T05:48:44.709Z,95.10
2017-12-10T05:51:19.045Z,94.90
2017-12-10T05:53:52.598Z,94.80
2017-12-10T05:56:26.311Z,94.30
2017-12-10T05:58:59.841Z,94.00
2017-12-10T06:01:33.568Z,93.70
2017-12-10T06:04:07.058Z,93.90
2017-12-10T06:06:40.756Z,94.30
2017-12-10T06:09:14.255Z,94.70
2017-12-10T06:11:47.825Z,94.00
2017-12-10T06:14:22.242Z,96.40
2017-12-10T06:16:55.889Z,96.30
2017-12-10T06:19:29.439Z,93.80
2017-12-10T06:22:02.953Z,94.50
2017-12-10T06:24:36.615Z,95.00
2017-12-10T06:27:10.293Z,94.60
2017-12-10T06:29:43.829Z,93.80
2017-12-10T06:32:17.613Z,94.00
2017-12-10T06:34:51.112Z,95.20
2017-12-10T06:37:24.768Z,95.90
2017-12-10T06:39:58.272Z,96.10
2017-12-10T06:42:31.990Z,96.00
2017-12-10T06:45:05.493Z,95.70
2017-12-10T06:47:39.026Z,96.90
2017-12-10T06:50:13.276Z,95.90
2017-12-10T06:52:46.886Z,95.90
2017-12-10T06:55:20.653Z,96.60
2017-12-10T06:57:54.155Z,96.50
2017-12-10T07:00:28.492Z,96.50
2017-12-10T07:03:02.084Z,96.50
2017-12-10T07:05:35.834Z,95.40
2017-12-10T07:08:09.544Z,94.30
2017-12-10T07:10:43.206Z,93.70
2017-12-10T07:13:16.803Z,93.30
2017-12-10T07:15:50.436Z,94.40
2017-12-10T07:18:24.146Z,93.60
2017-12-10T07:20:57.822Z,93.70
2017-12-10T07:23:31.429Z,92.90
2017-12-10T07:26:05.138Z,91.40
2017-12-10T07:28:38.721Z,92.10
2017-12-10T07:31:12.357Z,92.40
2017-12-10T07:33:46.066Z,92.20
2017-12-10T07:36:19.647Z,91.60
2017-12-10T07:38:53.155Z,91.30
2017-12-10T07:41:26.635Z,91.40
2017-12-10T07:44:00.157Z,91.40
2017-12-10T07:46:33.707Z,91.90
2017-12-10T07:49:07.259Z,91.90
2017-12-10T07:51:40.808Z,91.50
2017-12-10T07:54:14.490Z,91.80
2017-12-10T07:56:48.130Z,92.40
2017-12-10T07:59:21.659Z,91.90
2017-12-10T08:01:55.267Z,92.70
2017-12-10T08:04:29.617Z,93.10
2017-12-10T08:07:04.158Z,93.10
2017-12-10T08:09:37.823Z,92.70
2017-12-10T08:12:11.373Z,92.40
2017-12-10T08:14:45.701Z,93.20
2017-12-10T08:17:19.278Z,93.20
2017-12-10T08:19:53.016Z,93.20
2017-12-10T08:22:26.768Z,93.00
2017-12-10T08:25:00.567Z,92.90
2017-12-10T08:27:34.303Z,92.80
2017-12-10T08:30:08.628Z,92.10
2017-12-10T08:32:42.296Z,92.00
2017-12-10T08:35:16.019Z,92.00
2017-12-10T08:37:49.583Z,92.00
2017-12-10T08:40:23.147Z,91.50
2017-12-10T08:42:57.643Z,92.00
2017-12-10T08:45:31.324Z,92.00
2017-12-10T08:48:04.859Z,92.20
2017-12-10T08:50:38.472Z,91.50
2017-12-10T08:53:11.992Z,90.90
2017-12-10T08:55:45.565Z,91.00
2017-12-10T08:58:19.257Z,90.60
2017-12-10T09:00:53.578Z,90.60
2017-12-10T09:03:27.393Z,90.50
2017-12-10T09:06:01.086Z,90.90
2017-12-10T09:08:34.740Z,90.10
2017-12-10T09:11:08.294Z,90.90
2017-12-10T09:13:42.587Z,90.40
2017-12-10T09:16:17.013Z,87.70
2017-12-10T09:18:50.671Z,87.50
2017-12-10T09:21:24.310Z,91.10
2017-12-10T09:23:57.899Z,91.50
2017-12-10T09:26:31.469Z,91.10
2017-12-10T09:29:05.174Z,91.90
2017-12-10T09:31:39.473Z,91.30
2017-12-10T09:34:13.935Z,91.10
2017-12-10T09:36:47.463Z,91.10
2017-12-10T09:39:20.982Z,90.70
2017-12-10T09:41:54.550Z,89.30
2017-12-10T09:44:28.062Z,90.00
2017-12-10T09:47:02.556Z,73.40
2017-12-10T09:49:36.255Z,73.30
2017-12-10T09:52:09.811Z,65.50
2017-12-10T09:54:43.335Z,62.00
2017-12-10T09:57:16.892Z,64.30
2017-12-10T09:59:50.399Z,59.40
2017-12-10T10:02:23.974Z,60.50
2017-12-10T10:04:57.577Z,64.70
2017-12-10T10:07:31.181Z,62.20
2017-12-10T10:10:04.779Z,62.70
2017-12-10T10:12:38.494Z,65.50
2017-12-10T10:15:12.130Z,63.60
2017-12-10T10:17:45.731Z,61.30
2017-12-10T10:20:19.509Z,63.60
2017-12-10T10:22:53.810Z,59.20
2017-12-10T10:25:27.330Z,59.20
2017-12-10T10:28:01.169Z,60.00
2017-12-10T10:30:35.231Z,60.00
2017-12-10T10:33:08.821Z,60.30
2017-12-10T10:35:42.530Z,60.90
2017-12-10T10:38:16.102Z,61.30
2017-12-10T10:40:49.881Z,61.30
2017-12-10T10:43:23.399Z,59.00
2017-12-10T10:45:56.938Z,57.60
2017-12-10T10:48:30.513Z,56.40
2017-12-10T10:51:04.101Z,52.70
2017-12-10T10:53:37.728Z,51.50
2017-12-10T10:56:11.294Z,51.10
2017-12-10T10:58:45.655Z,51.40
2017-12-10T11:01:19.301Z,51.30
2017-12-10T11:03:52.970Z,51.10
2017-12-10T11:06:27.254Z,53.50
2017-12-10T11:09:00.872Z,53.50
2017-12-10T11:11:34.430Z,51.70
2017-12-10T11:14:08.171Z,54.00
2017-12-10T11:16:42.461Z,54.10
2017-12-10T11:19:16.254Z,54.00
2017-12-10T11:21:49.838Z,55.70
2017-12-10T11:24:23.541Z,56.10
2017-12-10T11:26:57.066Z,58.00
2017-12-10T11:29:31.733Z,63.80
2017-12-10T11:32:05.525Z,63.90
2017-12-10T11:34:39.052Z,66.60
2017-12-10T11:37:12.621Z,66.90
2017-12-10T11:39:46.236Z,70.00
2017-12-10T11:42:19.824Z,70.80
2017-12-10T11:44:53.406Z,72.00
2017-12-10T11:47:27.002Z,76.00
2017-12-10T11:50:01.348Z,75.50
2017-12-10T11:52:34.932Z,75.40
2017-12-10T11:55:08.459Z,77.50
2017-12-10T11:57:41.946Z,76.70
2017-12-10T12:00:15.504Z,77.70
2017-12-10T12:02:49.964Z,76.30
2017-12-10T12:05:23.543Z,76.30
2017-12-10T12:07:57.104Z,75.00
2017-12-10T12:10:30.650Z,76.80
2017-12-10T12:13:05.060Z,74.60
2017-12-10T12:15:38.684Z,74.70
2017-12-10T12:18:12.256Z,75.50
2017-12-10T12:20:45.803Z,75.80
2017-12-10T12:23:19.361Z,74.90
2017-12-10T12:25:52.897Z,77.00
2017-12-10T12:28:27.167Z,78.10
2017-12-10T12:31:01.536Z,80.20
2017-12-10T12:33:35.028Z,80.10
2017-12-10T12:36:08.710Z,78.90
2017-12-10T12:38:42.253Z,78.80
2017-12-10T12:41:15.916Z,78.20
2017-12-10T12:43:49.501Z,80.20
2017-12-10T12:46:23.082Z,78.70
2017-12-10T12:48:56.570Z,79.30
2017-12-10T12:51:30.197Z,77.50
2017-12-10T12:54:03.909Z,78.60
2017-12-10T12:56:37.437Z,77.70
2017-12-10T12:59:11.371Z,76.80
2017-12-10T13:01:45.041Z,77.10
2017-12-10T13:04:19.316Z,78.00
2017-12-10T13:06:52.946Z,77.80
2017-12-10T13:09:26.454Z,77.40
2017-12-10T13:12:00.031Z,77.80
2017-12-10T13:14:34.568Z,77.20
2017-12-10T13:17:08.269Z,77.10
2017-12-10T13:19:41.753Z,78.50
2017-12-10T13:22:16.118Z,78.90
2017-12-10T13:24:49.678Z,79.00
2017-12-10T13:27:23.180Z,78.30
2017-12-10T13:29:56.667Z,79.70
2017-12-10T13:32:30.978Z,78.30
2017-12-10T13:35:04.564Z,78.20
2017-12-10T13:37:38.187Z,80.80
2017-12-10T13:40:11.699Z,78.80
2017-12-10T13:42:45.239Z,81.40
2017-12-10T13:45:18.761Z,81.70
2017-12-10T13:47:52.311Z,82.20
2017-12-10T13:50:25.856Z,81.70
2017-12-10T13:52:59.426Z,84.00
2017-12-10T13:55:33.178Z,85.10
2017-12-10T13:58:06.748Z,86.60
2017-12-10T14:00:40.276Z,88.30
2017-12-10T14:03:13.862Z,89.90
2017-12-10T14:05:47.442Z,90.00
2017-12-10T14:08:21.063Z,91.60
2017-12-10T14:10:54.607Z,92.20
2017-12-10T14:13:28.313Z,93.40
2017-12-10T14:16:01.894Z,93.30
2017-12-10T14:18:35.417Z,94.50
2017-12-10T14:21:08.917Z,93.70
2017-12-10T14:23:42.495Z,93.60
2017-12-10T14:26:16.005Z,94.30
2017-12-10T14:28:49.555Z,94.00
2017-12-10T14:31:23.088Z,94.40
2017-12-10T14:33:56.588Z,94.00
2017-12-10T14:36:30.146Z,94.30
2017-12-10T14:39:05.141Z,94.30
2017-12-10T14:41:38.904Z,94.30
2017-12-10T14:44:12.543Z,93.50
2017-12-10T14:46:46.901Z,94.20
2017-12-10T14:49:20.444Z,94.20
2017-12-10T14:51:54.150Z,94.40
2017-12-10T14:54:27.717Z,94.40
2017-12-10T14:57:01.285Z,94.30
2017-12-10T14:59:34.952Z,94.50
2017-12-10T15:02:09.274Z,94.30
2017-12-10T15:04:43.001Z,94.20
2017-12-10T15:07:16.774Z,94.40
2017-12-10T15:09:50.364Z,95.20
2017-12-10T15:12:23.982Z,94.80
2017-12-10T15:14:57.567Z,95.30
2017-12-10T15:17:31.200Z,96.00
2017-12-10T15:20:04.770Z,96.50
2017-12-10T15:22:39.280Z,95.40
2017-12-10T15:25:12.887Z,95.40
2017-12-10T15:27:46.399Z,96.40
2017-12-10T15:30:19.976Z,97.10
2017-12-10T15:32:53.496Z,97.30
2017-12-10T15:35:27.105Z,98.00
2017-12-10T15:38:00.860Z,98.40
2017-12-10T15:40:34.409Z,99.80
2017-12-10T15:43:09.015Z,99.90
2017-12-10T15:45:42.583Z,99.90
2017-12-10T15:48:16.949Z,99.90
2017-12-10T15:50:50.680Z,99.90
2017-12-10T15:53:24.361Z,99.90
2017-12-10T15:55:57.891Z,99.90
2017-12-10T15:58:31.460Z,99.90
2017-12-10T16:01:05.361Z,99.90
2017-12-10T16:03:39.104Z,99.90
2017-12-10T16:06:12.901Z,99.90
2017-12-10T16:08:46.748Z,99.90
2017-12-10T16:11:20.582Z,99.90
2017-12-10T16:13:54.339Z,99.90
2017-12-10T16:16:28.900Z,99.90
2017-12-10T16:19:02.695Z,99.90
2017-12-10T16:21:36.505Z,99.90
2017-12-10T16:24:10.078Z,99.90
2017-12-10T16:26:43.903Z,99.90
2017-12-10T16:29:18.369Z,99.90
2017-12-10T16:31:52.844Z,99.90
2017-12-10T16:34:26.466Z,99.90
2017-12-10T16:37:00.210Z,99.90
2017-12-10T16:39:33.994Z,99.90
2017-12-10T16:42:07.731Z,99.90
2017-12-10T16:44:41.450Z,99.90
2017-12-10T16:47:14.983Z,99.90
2017-12-10T16:49:49.291Z,99.90
2017-12-10T16:52:23.705Z,99.90
2017-12-10T16:54:57.297Z,99.90
2017-12-10T16:57:31.620Z,99.90
2017-12-10T17:00:06.036Z,99.90
2017-12-10T17:02:39.756Z,99.90
2017-12-10T17:05:13.259Z,99.90
2017-12-10T17:07:46.897Z,99.90
2017-12-10T17:10:20.620Z,99.90
2017-12-10T17:12:54.134Z,99.90
2017-12-10T17:15:27.709Z,99.90
2017-12-10T17:18:01.349Z,99.90
2017-12-10T17:20:34.956Z,99.90
2017-12-10T17:23:08.569Z,99.90
2017-12-10T17:25:42.277Z,99.90
2017-12-10T17:28:15.898Z,99.90
2017-12-10T17:30:49.588Z,99.90
2017-12-10T17:33:23.902Z,99.90
2017-12-10T17:35:57.405Z,99.90
2017-12-10T17:38:31.059Z,99.90
2017-12-10T17:41:05.668Z,99.90
2017-12-10T17:43:39.342Z,99.90
2017-12-10T17:46:13.706Z,99.90
2017-12-10T17:48:47.375Z,99.90
2017-12-10T17:51:20.894Z,99.90
2017-12-10T17:53:54.455Z,99.90
2017-12-10T17:56:28.265Z,99.90
2017-12-10T17:59:01.765Z,99.90
2017-12-10T18:01:35.335Z,99.90
2017-12-10T18:04:08.934Z,99.90
2017-12-10T18:06:42.454Z,99.90
2017-12-10T18:09:16.122Z,99.90
2017-12-10T18:11:49.640Z,99.90
2017-12-10T18:14:23.254Z,99.90
2017-12-10T18:16:56.835Z,99.90
2017-12-10T18:19:31.920Z,99.90
2017-12-10T18:22:05.510Z,99.90
2017-12-10T18:24:39.114Z,99.90
2017-12-10T18:27:12.898Z,99.90
2017-12-10T18:29:46.466Z,99.90
2017-12-10T18:32:20.189Z,99.90
2017-12-10T18:34:54.419Z,99.90
2017-12-10T18:37:27.981Z,99.90
2017-12-10T18:40:01.544Z,99.90
2017-12-10T18:42:35.159Z,99.90
2017-12-10T18:45:08.701Z,99.90
2017-12-10T18:47:42.252Z,99.90
2017-12-10T18:50:15.934Z,99.90
2017-12-10T18:52:49.595Z,99.90
2017-12-10T18:55:23.940Z,99.90
2017-12-10T18:57:57.484Z,99.90
2017-12-10T19:00:31.133Z,99.90
2017-12-10T19:03:05.395Z,99.90
2017-12-10T19:05:39.187Z,99.90
2017-12-10T19:08:12.823Z,99.90
2017-12-10T19:10:47.193Z,99.90
2017-12-10T19:13:20.850Z,99.90
2017-12-10T19:15:54.465Z,99.90
2017-12-10T19:18:28.024Z,99.90
2017-12-10T19:21:01.614Z,99.90
2017-12-10T19:23:35.191Z,99.90
2017-12-10T19:26:09.517Z,99.90
2017-12-10T19:28:43.972Z,99.90
2017-12-10T19:31:17.628Z,99.90
2017-12-10T19:33:51.302Z,99.90
2017-12-10T19:36:24.986Z,99.90
2017-12-10T19:38:58.487Z,99.90
2017-12-10T19:41:32.108Z,99.90
2017-12-10T19:44:05.666Z,99.90
2017-12-10T19:46:39.393Z,99.90
2017-12-10T19:49:13.241Z,97.60
2017-12-10T19:51:47.005Z,96.90
2017-12-10T19:54:20.607Z,96.50
2017-12-10T19:56:54.224Z,93.20
2017-12-10T19:59:28.532Z,91.90
2017-12-10T20:02:02.284Z,91.90
2017-12-10T20:04:35.871Z,92.80
2017-12-10T20:07:09.432Z,91.80
2017-12-10T20:09:42.994Z,89.10
2017-12-10T20:12:16.854Z,89.30
2017-12-10T20:14:50.657Z,86.90
2017-12-10T20:17:24.310Z,83.60
2017-12-10T20:19:57.941Z,83.00
2017-12-10T20:22:31.471Z,86.50
2017-12-10T20:25:05.866Z,87.20
2017-12-10T20:27:39.858Z,88.50
2017-12-10T20:30:14.552Z,80.00
2017-12-10T20:32:48.196Z,80.00
2017-12-10T20:35:21.723Z,77.30
2017-12-10T20:37:55.332Z,78.20
2017-12-10T20:40:28.976Z,79.50
2017-12-10T20:43:02.524Z,82.20
2017-12-10T20:45:36.163Z,85.30
2017-12-10T20:48:09.771Z,86.90
2017-12-10T20:50:43.443Z,86.90
2017-12-10T20:53:16.996Z,87.50
2017-12-10T20:55:50.590Z,88.60
2017-12-10T20:58:24.232Z,88.90
2017-12-10T21:00:57.742Z,88.70
2017-12-10T21:03:31.360Z,89.50
2017-12-10T21:06:05.063Z,90.70
2017-12-10T21:08:39.646Z,92.00
2017-12-10T21:13:51.960Z,92.30
2017-12-10T21:16:25.611Z,92.90
2017-12-10T21:18:59.177Z,93.20
2017-12-10T21:21:32.685Z,93.40
2017-12-10T21:24:06.386Z,94.70
2017-12-10T21:26:39.993Z,95.60
2017-12-10T21:29:13.586Z,96.10
2017-12-10T21:31:47.231Z,96.40
2017-12-10T21:34:20.919Z,97.00
2017-12-10T21:36:54.535Z,97.10
2017-12-10T21:39:28.093Z,95.90
2017-12-10T21:42:01.771Z,93.10
2017-12-10T21:44:35.369Z,90.80
2017-12-10T21:47:08.993Z,90.20
2017-12-10T21:49:42.598Z,90.60
2017-12-10T21:52:16.134Z,91.80
2017-12-10T21:54:50.611Z,92.30
2017-12-10T21:57:24.918Z,92.80
2017-12-10T21:59:58.653Z,92.80
2017-12-10T22:02:32.386Z,92.00
2017-12-10T22:05:06.019Z,90.50
2017-12-10T22:07:39.624Z,88.00
2017-12-10T22:10:13.929Z,78.90
2017-12-10T22:12:47.634Z,78.90
2017-12-10T22:15:21.156Z,78.00
2017-12-10T22:18:05.976Z,74.10
2017-12-10T22:23:33.829Z,69.20
2017-12-10T22:26:07.520Z,66.50
2017-12-10T22:28:41.012Z,65.80
2017-12-10T22:31:14.587Z,63.30
2017-12-10T22:33:48.269Z,61.60
2017-12-10T22:36:22.644Z,62.60
2017-12-10T22:38:56.910Z,63.70
2017-12-10T22:41:31.356Z,60.80
2017-12-10T22:44:04.842Z,60.70
2017-12-10T22:46:38.390Z,63.30
2017-12-10T22:49:12.001Z,64.50
2017-12-10T22:51:45.522Z,63.20
2017-12-10T22:54:19.858Z,62.10
2017-12-10T22:56:53.473Z,61.90
2017-12-10T22:59:28.039Z,62.80
2017-12-10T23:02:02.893Z,60.40
2017-12-10T23:04:39.315Z,60.20
2017-12-10T23:07:13.442Z,61.10
2017-12-10T23:09:47.490Z,58.60
2017-12-10T23:12:21.412Z,59.00
2017-12-10T23:15:05.235Z,60.20
2017-12-10T23:17:39.708Z,60.00
2017-12-10T23:20:14.251Z,58.90
2017-12-10T23:22:48.984Z,61.30
2017-12-10T23:25:23.758Z,64.50
2017-12-10T23:27:57.641Z,61.50
2017-12-10T23:30:32.595Z,61.30
2017-12-10T23:33:11.155Z,61.10
2017-12-10T23:35:45.129Z,61.40
2017-12-10T23:38:19.097Z,62.40
2017-12-10T23:40:53.502Z,60.90
2017-12-10T23:43:28.163Z,62.60
2017-12-10T23:46:02.830Z,59.80
2017-12-10T23:48:36.965Z,62.60
2017-12-10T23:51:10.921Z,65.90
2017-12-10T23:53:46.024Z,60.20
2017-12-10T23:56:20.551Z,63.20
2017-12-10T23:58:54.733Z,63.00
